createdAt,value
2023-03-16T00:01:10.419Z,101753.47
2023-03-16T00:06:02.932Z,101736.22
2023-03-16T00:10:56.622Z,101728.47
2023-03-16T00:15:55.216Z,101742.28
2023-03-16T00:20:48.561Z,101742.38
2023-03-16T00:25:43.447Z,101722.44
2023-03-16T00:30:34.823Z,101737.28
2023-03-16T00:35:29.545Z,101735.59
2023-03-16T00:40:22.585Z,101723.47
2023-03-16T00:45:17.635Z,101712.38
2023-03-16T00:50:13.064Z,101699.47
2023-03-16T00:55:03.600Z,101691.91
2023-03-16T00:59:53.818Z,101684.88
2023-03-16T01:04:47.145Z,101686.69
2023-03-16T01:09:39.346Z,101646.56
2023-03-16T01:14:34.296Z,101674.50
2023-03-16T01:19:26.768Z,101649.44
2023-03-16T01:24:20.983Z,101653.81
2023-03-16T01:29:13.313Z,101657.38
2023-03-16T01:34:08.251Z,101644.34
2023-03-16T01:39:01.222Z,101626.16
2023-03-16T01:44:03.827Z,101644.63
2023-03-16T01:49:10.953Z,101627.41
2023-03-16T01:54:15.067Z,101621.41
2023-03-16T01:59:19.715Z,101634.41
2023-03-16T02:04:26.641Z,101626.69
2023-03-16T02:09:22.680Z,101620.47
2023-03-16T02:14:16.591Z,101613.75
2023-03-16T02:19:13.589Z,101612.13
2023-03-16T02:24:07.507Z,101595.72
2023-03-16T02:29:11.395Z,101596.53
2023-03-16T02:34:07.558Z,101598.97
2023-03-16T02:38:59.191Z,101592.06
2023-03-16T02:43:57.062Z,101586.84
2023-03-16T02:49:03.477Z,101578.09
2023-03-16T02:54:03.854Z,101558.94
2023-03-16T02:58:58.586Z,101569.41
2023-03-16T03:03:52.288Z,101575.63
2023-03-16T03:08:46.007Z,101573.13
2023-03-16T03:13:44.981Z,101566.91
2023-03-16T03:18:40.410Z,101560.13
2023-03-16T03:23:31.805Z,101559.31
2023-03-16T03:28:25.268Z,101567.06
2023-03-16T03:33:18.962Z,101556.00
2023-03-16T03:38:13.776Z,101556.91
2023-03-16T03:43:09.067Z,101548.34
2023-03-16T03:48:08.312Z,101534.66
2023-03-16T03:53:02.350Z,101542.34
2023-03-16T03:57:58.954Z,101526.94
2023-03-16T04:02:53.176Z,101519.16
2023-03-16T04:07:55.633Z,101512.22
2023-03-16T04:12:57.812Z,101520.91
2023-03-16T04:17:50.764Z,101495.56
2023-03-16T04:22:43.244Z,101520.47
2023-03-16T04:27:36.873Z,101507.63
2023-03-16T04:32:40.911Z,101502.53
2023-03-16T04:37:32.586Z,101496.50
2023-03-16T04:42:23.598Z,101492.22
2023-03-16T04:47:14.306Z,101500.81
2023-03-16T04:52:08.405Z,101477.25
2023-03-16T04:56:59.983Z,101475.66
2023-03-16T05:02:02.070Z,101482.41
2023-03-16T05:06:55.644Z,101483.22
2023-03-16T05:11:56.111Z,101491.69
2023-03-16T05:16:50.275Z,101479.50
2023-03-16T05:21:42.674Z,101482.09
2023-03-16T05:26:41.509Z,101475.22
2023-03-16T05:31:40.157Z,101454.28
2023-03-16T05:36:38.336Z,101455.56
2023-03-16T05:41:41.372Z,101455.44
2023-03-16T05:46:56.701Z,101446.00
2023-03-16T05:51:49.205Z,101451.03
2023-03-16T05:56:40.002Z,101450.03
2023-03-16T06:01:32.024Z,101458.16
2023-03-16T06:06:25.593Z,101462.47
2023-03-16T06:11:39.070Z,101452.72
2023-03-16T06:16:34.055Z,101431.84
2023-03-16T06:21:34.566Z,101423.13
2023-03-16T06:26:35.165Z,101445.31
2023-03-16T06:31:30.459Z,101389.19
2023-03-16T06:36:21.952Z,101431.19
2023-03-16T06:41:23.362Z,101430.56
2023-03-16T06:46:19.663Z,101427.28
2023-03-16T06:51:16.319Z,101397.81
2023-03-16T06:56:13.139Z,101410.06
2023-03-16T07:01:12.837Z,101404.25
2023-03-16T07:06:06.109Z,101401.84
2023-03-16T07:10:58.764Z,101400.38
2023-03-16T07:15:50.062Z,101391.41
2023-03-16T07:20:44.892Z,101411.50
2023-03-16T07:25:35.329Z,101414.13
2023-03-16T07:30:28.254Z,101408.31
2023-03-16T07:35:19.000Z,101422.19
2023-03-16T07:40:15.216Z,101422.47
2023-03-16T07:45:09.478Z,101392.38
2023-03-16T07:50:01.842Z,101410.72
2023-03-16T07:54:52.850Z,101392.59
2023-03-16T07:59:50.171Z,101397.06
2023-03-16T08:04:46.112Z,101391.09
2023-03-16T08:09:53.470Z,101303.69
2023-03-16T08:14:54.963Z,101418.44
2023-03-16T08:19:51.999Z,101426.59
2023-03-16T08:24:49.770Z,101403.19
2023-03-16T08:29:42.857Z,101397.09
2023-03-16T08:34:44.081Z,101391.22
2023-03-16T08:39:38.059Z,101402.66
2023-03-16T08:44:37.336Z,101330.59
2023-03-16T08:49:30.777Z,101328.13
2023-03-16T08:54:36.028Z,101399.47
2023-03-16T08:59:30.459Z,101372.47
2023-03-16T09:04:22.026Z,101383.94
2023-03-16T09:09:13.867Z,101390.22
2023-03-16T09:14:07.104Z,101386.94
2023-03-16T09:18:58.706Z,101376.00
2023-03-16T09:23:49.201Z,101377.59
2023-03-16T09:28:42.337Z,101370.31
2023-03-16T09:33:35.708Z,101371.34
2023-03-16T09:38:26.604Z,101371.34
2023-03-16T09:43:28.403Z,101355.69
2023-03-16T09:48:19.136Z,101353.09
2023-03-16T09:53:20.487Z,101361.69
2023-03-16T09:58:16.738Z,101348.66
2023-03-16T10:03:28.899Z,101353.91
2023-03-16T10:08:25.321Z,101351.09
2023-03-16T10:13:26.926Z,101352.63
2023-03-16T10:18:19.373Z,101355.50
2023-03-16T10:23:19.564Z,101363.28
2023-03-16T10:28:13.339Z,101355.59
2023-03-16T10:33:10.243Z,101343.47
2023-03-16T10:38:04.908Z,101325.16
2023-03-16T10:42:55.793Z,101332.09
2023-03-16T10:47:50.577Z,101318.25
2023-03-16T10:52:44.159Z,101312.72
2023-03-16T10:57:36.585Z,101305.69
2023-03-16T11:02:33.883Z,101296.09
2023-03-16T11:07:28.605Z,101298.78
2023-03-16T11:12:25.275Z,101277.91
2023-03-16T11:17:18.448Z,101271.88
2023-03-16T11:22:15.985Z,101271.09
2023-03-16T11:27:18.404Z,101268.63
2023-03-16T11:32:15.468Z,101263.25
2023-03-16T11:37:10.280Z,101250.41
2023-03-16T11:42:04.644Z,101246.94
2023-03-16T11:47:04.581Z,101249.25
2023-03-16T11:52:05.190Z,101238.56
2023-03-16T11:56:58.307Z,101244.25
2023-03-16T12:02:01.149Z,101245.06
2023-03-16T12:07:11.219Z,101236.75
2023-03-16T12:12:05.458Z,101233.34
2023-03-16T12:17:01.255Z,101203.47
2023-03-16T12:22:01.580Z,101204.88
2023-03-16T12:26:57.121Z,101201.63
2023-03-16T12:31:53.811Z,101193.53
2023-03-16T12:36:56.582Z,101191.75
2023-03-16T12:41:56.390Z,101181.13
2023-03-16T12:46:56.877Z,101174.09
2023-03-16T12:51:49.269Z,101159.09
2023-03-16T12:56:53.888Z,101169.44
2023-03-16T13:01:48.360Z,101162.38
2023-03-16T13:06:53.677Z,101158.41
2023-03-16T13:11:50.577Z,101110.16
2023-03-16T13:16:45.706Z,101141.06
2023-03-16T13:21:44.831Z,101130.47
2023-03-16T13:26:53.580Z,101131.44
2023-03-16T13:32:00.773Z,101123.34
2023-03-16T13:36:59.961Z,101110.56
2023-03-16T13:42:03.834Z,101093.31
2023-03-16T13:46:57.371Z,101107.81
2023-03-16T13:51:50.086Z,101108.19
2023-03-16T13:56:47.449Z,101094.66
2023-03-16T14:01:41.957Z,101092.19
2023-03-16T14:06:35.735Z,101085.75
2023-03-16T14:11:30.043Z,101072.56
2023-03-16T14:16:29.565Z,101061.25
2023-03-16T14:21:26.128Z,101070.75
2023-03-16T14:26:22.734Z,101057.22
2023-03-16T14:31:28.544Z,101058.94
2023-03-16T14:36:26.180Z,101060.59
2023-03-16T14:41:28.923Z,101056.47
2023-03-16T14:46:23.404Z,101055.81
2023-03-16T14:51:23.172Z,101040.75
2023-03-16T14:56:19.011Z,101032.50
2023-03-16T15:01:09.712Z,101022.53
2023-03-16T15:06:01.155Z,101012.91
2023-03-16T15:10:52.854Z,101007.72
2023-03-16T15:15:49.312Z,101005.84
2023-03-16T15:20:51.230Z,101005.22
2023-03-16T15:25:43.570Z,100999.38
2023-03-16T15:30:37.655Z,101004.34
2023-03-16T15:35:32.575Z,101006.69
2023-03-16T15:40:25.234Z,101002.44
2023-03-16T15:45:19.119Z,101001.16
2023-03-16T15:50:10.270Z,100989.19
2023-03-16T15:55:08.831Z,100958.41
2023-03-16T16:00:02.960Z,100968.13
2023-03-16T16:04:56.724Z,100922.63
2023-03-16T16:09:50.136Z,100969.91
2023-03-16T16:14:45.383Z,100948.84
2023-03-16T16:19:39.895Z,100954.91
2023-03-16T16:24:31.664Z,100955.06
2023-03-16T16:29:26.030Z,100947.28
2023-03-16T16:34:22.642Z,100938.50
2023-03-16T16:39:15.704Z,100901.81
2023-03-16T16:44:10.488Z,100933.84
2023-03-16T16:49:26.798Z,100936.66
2023-03-16T16:54:19.302Z,100921.44
2023-03-16T16:59:19.404Z,100937.31
2023-03-16T17:04:24.031Z,100928.81
2023-03-16T17:09:14.835Z,100907.38
2023-03-16T17:14:08.086Z,100909.94
2023-03-16T17:18:58.836Z,100901.34
2023-03-16T17:24:04.493Z,100909.25
2023-03-16T17:29:02.538Z,100925.97
2023-03-16T17:33:59.747Z,100913.22
2023-03-16T17:39:03.911Z,100942.63
2023-03-16T17:43:58.648Z,100949.72
2023-03-16T17:48:51.431Z,100949.84
2023-03-16T17:53:42.940Z,100921.47
2023-03-16T17:58:37.604Z,100927.53
2023-03-16T18:03:30.851Z,100923.31
2023-03-16T18:08:30.040Z,100923.25
2023-03-16T18:13:23.489Z,100904.50
2023-03-16T18:18:22.534Z,100917.47
2023-03-16T18:23:20.753Z,100910.72
2023-03-16T18:28:14.464Z,100916.75
2023-03-16T18:33:07.718Z,100900.44
2023-03-16T18:38:01.262Z,100904.84
2023-03-16T18:42:55.487Z,100916.16
2023-03-16T18:47:59.186Z,100924.03
2023-03-16T18:52:59.971Z,100906.81
2023-03-16T18:57:59.890Z,100903.31
2023-03-16T19:02:55.583Z,100879.19
2023-03-16T19:07:57.737Z,100898.31
2023-03-16T19:12:50.766Z,100889.78
2023-03-16T19:17:49.102Z,100881.91
2023-03-16T19:22:44.436Z,100879.34
2023-03-16T19:27:46.343Z,100872.47
2023-03-16T19:32:39.373Z,100869.97
2023-03-16T19:37:36.913Z,100874.31
2023-03-16T19:42:34.336Z,100851.78
2023-03-16T19:47:32.379Z,100861.31
2023-03-16T19:52:26.429Z,100844.19
2023-03-16T19:57:26.098Z,100868.53
2023-03-16T20:02:32.402Z,100861.53
2023-03-16T20:07:23.853Z,100865.03
2023-03-16T20:12:27.832Z,100838.28
2023-03-16T20:17:27.301Z,100840.84
2023-03-16T20:22:23.085Z,100838.34
2023-03-16T20:27:16.022Z,100835.78
2023-03-16T20:32:22.356Z,100841.88
2023-03-16T20:37:29.607Z,100841.03
2023-03-16T20:42:27.209Z,100824.56
2023-03-16T20:47:24.701Z,100819.41
2023-03-16T20:52:20.000Z,100821.97
2023-03-16T20:57:19.811Z,100818.66
2023-03-16T21:02:32.341Z,100816.06
2023-03-16T21:07:25.489Z,100804.91
2023-03-16T21:12:26.518Z,100817.84
2023-03-16T21:17:27.844Z,100811.78
2023-03-16T21:22:29.952Z,100796.22
2023-03-16T21:27:29.223Z,100814.38
2023-03-16T21:32:30.080Z,100802.28
2023-03-16T21:37:28.150Z,100717.78
2023-03-16T21:42:20.258Z,100772.13
2023-03-16T21:47:25.740Z,100796.28
2023-03-16T21:52:30.956Z,100791.13
2023-03-16T21:57:22.468Z,100792.84
2023-03-16T22:02:26.867Z,100798.91
2023-03-16T22:07:29.932Z,100796.31
2023-03-16T22:12:26.796Z,100791.13
2023-03-16T22:17:23.510Z,100766.97
2023-03-16T22:22:19.016Z,100782.53
2023-03-16T22:27:19.083Z,100773.00
2023-03-16T22:32:26.843Z,100779.03
2023-03-16T22:37:23.682Z,100779.84
2023-03-16T22:42:41.437Z,100785.06
2023-03-16T22:47:41.368Z,100774.72
2023-03-16T22:52:43.898Z,100755.75
2023-03-16T22:57:35.382Z,100729.91
2023-03-16T23:02:29.620Z,100758.28
2023-03-16T23:07:30.246Z,100763.44
2023-03-16T23:12:28.904Z,100755.63
2023-03-16T23:17:23.519Z,100780.66
2023-03-16T23:22:25.570Z,100770.34
2023-03-16T23:27:20.280Z,100745.44
2023-03-16T23:32:13.096Z,100763.56
2023-03-16T23:37:04.994Z,100742.72
2023-03-16T23:42:04.513Z,100751.47
2023-03-16T23:46:59.796Z,100759.25
2023-03-16T23:51:51.686Z,100766.97
2023-03-16T23:56:41.757Z,100769.56
